Time;durP1;ratioP1;P1;durP2;ratioP2;P2;SDS_P1;SDS_P2;PMS_P1;PMS_P2;Temp;Humidity;BMP_temperature;BMP_pressure;BME280_temperature;BME280_humidity;BME280_pressure;Samples;Min_cycle;Max_cycle;Signal;HPM_P1;HPM_P2
2022/12/17 13:06:47;;;;;;;;;63.33;48.67;;;;;2.73;93.45;102298.16;5049975;28;50146;-74
2022/12/17 13:09:21;;;;;;;;;63.33;49.00;;;;;2.67;94.58;102295.06;5050133;28;49969;-74
2022/12/17 13:12:07;;;;;;;;;68.33;54.00;;;;;2.61;93.06;102302.41;5050132;28;49673;-74
2022/12/17 13:14:35;;;;;;;;;65.67;52.67;;;;;2.08;94.42;102204.94;5050804;28;49677;-66
2022/12/17 13:17:07;;;;;;;;;65.00;50.33;;;;;1.30;94.34;102091.00;5056819;28;50898;-77
2022/12/17 13:19:40;;;;;;;;;63.00;50.67;;;;;1.95;95.85;102203.09;5066570;28;50514;-74
2022/12/17 13:22:15;;;;;;;;;64.67;50.33;;;;;2.48;95.75;102286.66;5073234;27;49824;-80
2022/12/17 13:24:42;;;;;;;;;62.33;49.67;;;;;2.57;95.54;102292.56;5073235;28;50024;-73
2022/12/17 13:27:28;;;;;;;;;61.33;46.00;;;;;2.48;94.19;102294.44;5072960;28;50265;-70
2022/12/17 13:29:54;;;;;;;;;56.75;44.25;;;;;2.15;94.01;102249.59;5073204;28;49766;-73
2022/12/17 13:32:27;;;;;;;;;59.33;47.67;;;;;2.32;95.41;102296.63;5072968;27;49803;-76
2022/12/17 13:35:14;;;;;;;;;55.00;44.33;;;;;2.35;95.73;102294.28;5073136;28;50189;-80
2022/12/17 13:38:02;;;;;;;;;49.00;43.00;;;;;2.01;96.09;102240.72;5072699;28;49823;-78
2022/12/17 13:41:05;;;;;;;;;59.00;48.67;;;;;2.39;95.08;102284.25;5061333;28;49767;-80
2022/12/17 13:43:33;;;;;;;;;54.00;46.00;;;;;2.40;95.07;102313.69;5053358;28;50455;-65
2022/12/17 13:45:59;;;;;;;;;56.33;45.33;;;;;2.19;95.56;102256.78;5061232;28;49918;-66
2022/12/17 13:48:27;;;;;;;;;60.67;51.00;;;;;2.37;95.49;102283.25;5072798;28;50807;-72
2022/12/17 13:50:59;;;;;;;;;59.00;45.00;;;;;1.98;95.90;102224.94;5072826;28;49620;-79
2022/12/17 13:53:26;;;;;;;;;58.00;45.67;;;;;2.00;96.01;102232.81;5072953;28;49754;-73
2022/12/17 13:55:54;;;;;;;;;57.67;47.67;;;;;2.12;95.49;102217.34;5072691;27;50182;-72
2022/12/17 13:58:26;;;;;;;;;46.33;44.33;;;;;1.96;95.26;102216.16;5072535;28;49816;-70
2022/12/17 14:01:07;;;;;;;;;63.33;48.00;;;;;1.94;95.30;102247.91;5064560;27;49967;-70
2022/12/17 14:03:33;;;;;;;;;53.00;45.00;;;;;2.08;97.21;102283.56;5046051;28;49870;-71
2022/12/17 14:05:59;;;;;;;;;57.00;50.33;;;;;2.03;96.26;102287.50;5057525;27;50889;-64
2022/12/17 14:08:29;;;;;;;;;53.00;42.00;;;;;1.89;97.31;102280.28;5057854;27;50822;-68
2022/12/17 14:13:41;;;;;;;;;47.00;44.67;;;;;1.91;98.37;102282.22;5054901;28;50009;-71
2022/12/17 14:16:07;;;;;;;;;64.67;50.00;;;;;1.89;97.71;102283.78;5052775;27;49873;-67
2022/12/17 14:18:39;;;;;;;;;62.33;48.00;;;;;1.88;98.24;102302.69;5071264;28;49852;-72
2022/12/17 14:21:04;;;;;;;;;54.00;46.00;;;;;1.93;97.87;102292.69;5072501;28;49893;-66
2022/12/17 14:23:32;;;;;;;;;55.67;43.00;;;;;0.94;98.35;102145.84;5072197;28;49810;-70
2022/12/17 14:25:58;;;;;;;;;66.00;49.00;;;;;2.03;98.26;102299.50;5072070;28;49675;-66
2022/12/17 14:28:34;;;;;;;;;62.67;48.00;;;;;2.08;98.29;102295.59;5071962;27;49844;-66
2022/12/17 14:31:07;;;;;;;;;52.00;44.00;;;;;1.28;97.22;102179.63;5071751;27;49810;-67
2022/12/17 14:33:34;;;;;;;;;61.00;45.33;;;;;2.17;96.79;102296.34;5071922;27;49691;-68
2022/12/17 14:36:08;;;;;;;;;54.67;46.33;;;;;2.11;96.21;102296.75;5072154;28;49974;-69
2022/12/17 14:38:34;;;;;;;;;51.67;43.33;;;;;2.00;95.84;102279.44;5066230;28;50642;-66
2022/12/17 14:42:24;;;;;;;;;43.00;39.00;;;;;1.56;95.69;102240.56;5074090;28;49899;-66
2022/12/17 14:43:54;;;;;;;;;50.50;41.00;;;;;1.86;96.62;102280.97;5072274;27;49823;-68
2022/12/17 14:46:21;;;;;;;;;52.67;43.67;;;;;1.75;96.37;102299.00;5072018;28;49600;-67
2022/12/17 14:48:59;;;;;;;;;56.25;44.25;;;;;1.55;96.46;102240.47;5071399;28;50774;-68
2022/12/17 14:51:34;;;;;;;;;48.00;42.00;;;;;1.98;96.96;102292.28;5071363;28;49615;-69
2022/12/17 14:54:21;;;;;;;;;61.00;40.00;;;;;2.12;97.57;102287.28;5087434;27;49901;-67
2022/12/17 14:56:48;;;;;;;;;52.67;42.00;;;;;1.18;95.83;102151.22;5071781;28;50108;-65
2022/12/17 14:59:34;;;;;;;;;51.00;45.00;;;;;1.72;96.50;102235.81;5071650;28;50304;-72
2022/12/17 15:02:25;;;;;;;;;44.75;37.00;;;;;1.77;97.57;102259.50;5071715;28;49793;-73
2022/12/17 15:04:52;;;;;;;;;44.00;41.50;;;;;0.89;97.70;102117.84;5071565;28;49948;-68
2022/12/17 15:07:30;;;;;;;;;52.33;40.67;;;;;1.83;97.32;102278.09;5071537;28;49808;-66
2022/12/17 15:09:59;;;;;;;;;61.75;42.00;;;;;1.06;98.31;102185.66;5070801;28;49901;-72
2022/12/17 15:12:26;;;;;;;;;53.67;46.00;;;;;1.68;97.64;102261.38;5071211;27;50430;-70
2022/12/17 15:14:52;;;;;;;;;52.50;42.75;;;;;1.40;97.42;102243.59;5071566;28;49664;-66
2022/12/17 15:17:17;;;;;;;;;50.50;44.25;;;;;0.49;97.97;102073.25;5057320;28;50044;-69
2022/12/17 15:19:42;;;;;;;;;56.25;43.00;;;;;1.96;97.73;102290.38;5071013;27;49828;-69
2022/12/17 15:22:15;;;;;;;;;56.75;48.00;;;;;1.33;97.69;102189.53;5071270;28;49965;-71
2022/12/17 15:24:42;;;;;;;;;48.25;43.50;;;;;1.62;97.32;102216.84;5070617;28;49794;-68
2022/12/17 15:27:11;;;;;;;;;49.25;42.25;;;;;1.82;97.41;102252.09;5071259;27;49794;-69
2022/12/17 15:29:36;;;;;;;;;51.75;45.25;;;;;1.30;96.43;102159.94;5071129;28;49805;-72
2022/12/17 15:32:02;;;;;;;;;48.75;40.50;;;;;1.07;96.08;102137.41;5069672;28;49910;-70
2022/12/17 15:34:28;;;;;;;;;34.50;27.00;;;;;1.80;96.29;102280.47;5070011;28;49794;-72
2022/12/17 15:36:53;;;;;;;;;52.00;39.75;;;;;1.41;96.76;102239.31;5071194;27;49811;-66
2022/12/17 15:39:19;;;;;;;;;50.33;45.00;;;;;0.73;98.60;102147.59;5064358;28;49973;-70
2022/12/17 15:44:28;;;;;;;;;56.00;45.33;;;;;0.60;100.00;102175.78;5070984;28;49791;-70
2022/12/17 15:46:53;;;;;;;;;52.67;45.00;;;;;1.46;100.00;102288.88;5071221;27;49545;-67
2022/12/17 15:49:18;;;;;;;;;62.67;52.00;;;;;1.17;100.00;102248.59;5070659;28;49815;-73
2022/12/17 15:51:44;;;;;;;;;64.67;50.33;;;;;1.28;100.00;102268.50;5070631;28;50007;-72
2022/12/17 15:54:09;;;;;;;;;59.67;47.33;;;;;1.38;100.00;102298.59;5071162;27;49778;-73
2022/12/17 15:56:36;;;;;;;;;65.00;50.00;;;;;1.38;100.00;102311.53;5073150;27;50038;-70
2022/12/17 15:59:01;;;;;;;;;60.00;49.33;;;;;1.07;100.00;102253.81;5051102;28;49628;-72
2022/12/17 16:01:27;;;;;;;;;65.33;46.00;;;;;1.05;100.00;102276.91;5051024;28;49692;-67
2022/12/17 16:03:53;;;;;;;;;60.67;44.33;;;;;0.59;100.00;102188.59;5051218;28;49712;-69
2022/12/17 16:06:18;;;;;;;;;58.00;48.33;;;;;1.41;100.00;102330.81;5051293;28;49801;-69
2022/12/17 16:08:44;;;;;;;;;58.33;47.33;;;;;1.01;100.00;102253.28;5053711;28;50502;-64
2022/12/17 16:11:11;;;;;;;;;66.33;52.67;;;;;1.35;100.00;102313.84;5055014;28;50016;-66
2022/12/17 16:13:38;;;;;;;;;58.67;49.33;;;;;0.81;100.00;102259.38;5051780;28;49804;-63
2022/12/17 16:16:04;;;;;;;;;62.67;48.67;;;;;1.12;100.00;102319.72;5052844;28;49937;-67
2022/12/17 16:18:30;;;;;;;;;60.00;50.00;;;;;1.22;100.00;102336.91;5050758;28;50643;-64
2022/12/17 16:21:07;;;;;;;;;59.00;47.00;;;;;0.77;100.00;102257.28;5050844;28;49969;-68
2022/12/17 16:23:33;;;;;;;;;27.67;14.00;;;;;1.17;100.00;102310.69;5058055;28;49529;-65
2022/12/17 16:26:01;;;;;;;;;62.00;44.67;;;;;-0.70;100.00;102033.13;5058101;28;50000;-62
2022/12/17 16:28:28;;;;;;;;;65.67;49.00;;;;;-0.81;100.00;102028.72;5066567;27;51386;-68
2022/12/17 16:31:01;;;;;;;;;58.67;49.33;;;;;0.76;100.00;102281.34;5052950;28;49857;-65
2022/12/17 16:33:34;;;;;;;;;62.00;48.33;;;;;0.97;100.00;102309.03;5051191;28;50005;-63
2022/12/17 16:36:01;;;;;;;;;70.67;51.00;;;;;1.07;100.00;102350.41;5068261;28;49945;-70
2022/12/17 16:38:27;;;;;;;;;61.00;48.00;;;;;0.17;100.00;102197.09;5051487;28;50417;-64
2022/12/17 16:41:01;;;;;;;;;65.67;47.00;;;;;0.24;100.00;102220.09;5050570;28;49705;-64
2022/12/17 16:43:31;;;;;;;;;64.67;49.33;;;;;1.01;100.00;102338.63;5051231;28;49925;-67
2022/12/17 16:45:56;;;;;;;;;64.67;54.67;;;;;0.56;100.00;102267.66;5051037;28;49984;-70
2022/12/17 16:48:23;;;;;;;;;62.67;51.00;;;;;0.91;100.00;102328.28;5050793;28;50559;-77
2022/12/17 16:50:50;;;;;;;;;72.00;56.67;;;;;0.49;100.00;102262.75;5053222;28;50082;-63
2022/12/17 16:53:17;;;;;;;;;65.67;45.67;;;;;0.89;100.00;102316.91;5066838;28;50026;-63
2022/12/17 16:55:48;;;;;;;;;29.67;16.33;;;;;0.67;100.00;102290.91;5054309;28;49619;-65
2022/12/17 16:58:17;;;;;;;;;67.00;51.67;;;;;0.57;100.00;102294.38;5054158;28;50003;-72
2022/12/17 17:00:45;;;;;;;;;57.33;48.67;;;;;0.37;100.00;102284.94;5073480;28;49819;-68
2022/12/17 17:03:11;;;;;;;;;50.00;41.00;;;;;0.14;100.00;102243.34;5074370;28;50105;-65
2022/12/17 17:05:39;;;;;;;;;49.00;39.00;;;;;-0.39;100.00;102175.06;5074058;28;49682;-66
2022/12/17 17:08:05;;;;;;;;;57.33;44.33;;;;;0.49;100.00;102345.44;5078122;28;50786;-70
2022/12/17 17:10:34;;;;;;;;;58.00;42.00;;;;;-0.16;100.00;102251.91;5074803;28;49857;-66
2022/12/17 17:13:00;;;;;;;;;59.00;49.33;;;;;0.52;100.00;102313.78;5071225;27;49996;-70
2022/12/17 17:15:26;;;;;;;;;66.00;51.00;;;;;0.19;100.00;102242.97;5063364;28;49883;-64
2022/12/17 17:17:51;;;;;;;;;58.00;52.00;;;;;-0.14;100.00;102199.66;5061346;28;49817;-83
2022/12/17 17:20:17;;;;;;;;;57.67;47.33;;;;;0.58;100.00;102319.50;5076883;28;49989;-77
2022/12/17 17:22:42;;;;;;;;;65.00;48.67;;;;;0.42;100.00;102299.16;5070563;27;49798;-70
2022/12/17 17:25:08;;;;;;;;;59.33;47.67;;;;;0.37;100.00;102277.19;5069966;28;50016;-76
2022/12/17 17:27:33;;;;;;;;;52.33;42.67;;;;;0.56;100.00;102319.31;5069823;28;50747;-81
2022/12/17 17:29:59;;;;;;;;;48.67;40.00;;;;;-0.07;100.00;102235.53;5073932;28;49711;-69
2022/12/17 17:32:25;;;;;;;;;64.00;48.00;;;;;0.11;100.00;102285.31;5072997;27;49870;-73
2022/12/17 17:34:50;;;;;;;;;57.00;47.67;;;;;-0.29;100.00;102224.09;5065870;28;50193;-78
2022/12/17 17:37:17;;;;;;;;;68.00;54.00;;;;;0.39;100.00;102341.94;5071277;28;49944;-77
2022/12/17 17:39:42;;;;;;;;;67.67;54.67;;;;;0.44;100.00;102345.81;5066495;28;49853;-63
2022/12/17 17:42:08;;;;;;;;;74.33;56.00;;;;;-0.47;100.00;102222.53;5066094;28;49722;-67
2022/12/17 17:44:34;;;;;;;;;56.33;45.33;;;;;-0.03;100.00;102278.91;5067994;28;50077;-64
2022/12/17 17:46:59;;;;;;;;;61.00;48.33;;;;;0.31;100.00;102361.94;5069437;28;50977;-63
2022/12/17 17:49:25;;;;;;;;;59.33;48.67;;;;;0.32;100.00;102337.00;5070871;28;49864;-68
2022/12/17 17:51:50;;;;;;;;;68.67;52.00;;;;;0.34;100.00;102328.59;5068976;27;53000;-68
2022/12/17 17:54:15;;;;;;;;;52.67;45.33;;;;;-0.24;100.00;102222.84;5069024;28;54600;-62
2022/12/17 17:56:41;;;;;;;;;59.33;51.00;;;;;0.38;100.00;102330.66;5063217;28;49824;-63
2022/12/17 17:59:14;;;;;;;;;72.33;54.67;;;;;-0.02;100.00;102256.59;5067051;28;49768;-62
2022/12/17 18:01:42;;;;;;;;;65.67;53.00;;;;;0.32;100.00;102313.75;5077905;28;49750;-71
2022/12/17 18:04:13;;;;;;;;;69.67;53.00;;;;;0.38;100.00;102329.75;5084534;28;49479;-83
2022/12/17 18:06:40;;;;;;;;;62.67;52.00;;;;;0.15;100.00;102305.44;5082211;27;49789;-73
2022/12/17 18:09:06;;;;;;;;;70.67;53.00;;;;;0.23;100.00;102321.59;5088020;28;49299;-79
2022/12/17 18:11:33;;;;;;;;;67.00;50.67;;;;;0.23;100.00;102321.59;5087490;28;49578;-64
2022/12/17 18:14:00;;;;;;;;;66.33;56.00;;;;;-0.07;100.00;102276.84;5087125;27;49821;-66
2022/12/17 18:16:30;;;;;;;;;62.00;52.00;;;;;0.20;100.00;102322.25;5069392;27;51579;-66
2022/12/17 18:19:00;;;;;;;;;69.00;51.00;;;;;-0.13;100.00;102258.25;5061789;27;49786;-69
2022/12/17 18:21:27;;;;;;;;;72.00;57.00;;;;;-0.17;100.00;102253.59;5059556;28;49972;-65
2022/12/17 18:23:54;;;;;;;;;69.00;55.00;;;;;0.18;100.00;102328.94;5070274;28;50240;-65
2022/12/17 18:26:21;;;;;;;;;78.67;57.67;;;;;0.17;100.00;102326.22;5074566;27;50384;-66
2022/12/17 18:28:47;;;;;;;;;68.00;55.00;;;;;-0.10;100.00;102281.72;5064262;28;49787;-66
2022/12/17 18:31:22;;;;;;;;;68.33;52.67;;;;;0.21;100.00;102318.91;5073543;28;49851;-74
2022/12/17 18:33:56;;;;;;;;;70.67;56.33;;;;;0.22;100.00;102322.38;5082845;27;49890;-69
2022/12/17 18:36:25;;;;;;;;;68.33;57.67;;;;;-0.19;100.00;102273.22;5093168;27;52347;-71
2022/12/17 18:39:06;;;;;;;;;61.33;52.33;;;;;0.19;100.00;102346.28;5071608;28;49598;-68
2022/12/17 18:44:16;;;;;;;;;69.00;54.67;;;;;-1.02;100.00;102174.69;5065978;28;49787;-64
2022/12/17 18:46:42;;;;;;;;;51.33;44.33;;;;;-0.23;100.00;102286.59;5069396;28;50566;-65
2022/12/17 18:49:10;;;;;;;;;60.00;47.67;;;;;-0.78;100.00;102199.16;5068772;28;49828;-74
2022/12/17 18:51:37;;;;;;;;;74.67;57.00;;;;;-0.57;100.00;102245.69;5068371;28;50275;-66
2022/12/17 18:54:05;;;;;;;;;63.33;49.00;;;;;-0.47;100.00;102269.88;5062981;28;50074;-64
2022/12/17 18:56:32;;;;;;;;;69.33;55.00;;;;;0.07;100.00;102360.66;5064980;27;50001;-64
2022/12/17 18:58:58;;;;;;;;;66.67;53.00;;;;;-0.37;100.00;102297.38;5066811;28;50164;-71
2022/12/17 19:01:27;;;;;;;;;64.67;47.67;;;;;-0.88;100.00;102217.16;5064252;28;49731;-76
2022/12/17 19:03:54;;;;;;;;;69.00;53.67;;;;;-1.85;100.00;102054.66;5068019;28;49891;-64
2022/12/17 19:06:21;;;;;;;;;66.00;51.67;;;;;-1.78;100.00;102088.84;5064252;28;50596;-71
2022/12/17 19:08:47;;;;;;;;;67.00;54.33;;;;;-0.60;100.00;102272.09;5061863;28;49795;-72
2022/12/17 19:11:14;;;;;;;;;76.33;60.33;;;;;-0.90;100.00;102218.69;5059327;28;49756;-75
2022/12/17 19:13:40;;;;;;;;;73.00;58.67;;;;;-0.21;100.00;102367.63;5062755;28;50054;-69
2022/12/17 19:16:14;;;;;;;;;73.67;58.67;;;;;-0.17;100.00;102362.00;5073068;28;50983;-71
2022/12/17 19:18:41;;;;;;;;;70.33;54.00;;;;;-0.17;100.00;102369.75;5074447;27;49893;-70
2022/12/17 19:21:09;;;;;;;;;69.00;54.33;;;;;-1.54;100.00;102159.69;5068903;28;49970;-73
2022/12/17 19:23:34;;;;;;;;;68.00;53.33;;;;;-0.39;100.00;102342.75;5070514;27;49948;-68
2022/12/17 19:26:07;;;;;;;;;65.00;54.67;;;;;-0.41;100.00;102329.72;5066166;27;50055;-73
2022/12/17 19:28:33;;;;;;;;;75.33;58.67;;;;;-0.58;100.00;102309.25;5060318;28;50032;-64
2022/12/17 19:30:59;;;;;;;;;75.33;58.33;;;;;-0.35;100.00;102368.09;5070126;28;49819;-71
2022/12/17 19:33:24;;;;;;;;;72.00;58.67;;;;;-0.31;100.00;102380.50;5059480;28;49918;-64
2022/12/17 19:35:50;;;;;;;;;77.33;59.33;;;;;-0.55;100.00;102321.53;5056275;27;49720;-73
2022/12/17 19:38:15;;;;;;;;;75.33;58.00;;;;;-0.98;100.00;102230.00;5065045;27;49877;-65
2022/12/17 19:40:40;;;;;;;;;68.33;55.00;;;;;-0.30;100.00;102346.16;5055631;27;49927;-63
2022/12/17 19:43:06;;;;;;;;;69.67;58.33;;;;;-0.84;100.00;102260.50;5055595;28;49844;-68
2022/12/17 19:45:31;;;;;;;;;73.33;59.67;;;;;-0.37;100.00;102354.16;5060740;27;49826;-73
2022/12/17 19:47:57;;;;;;;;;65.00;54.33;;;;;-0.52;100.00;102332.13;5057671;27;49151;-65
2022/12/17 19:50:22;;;;;;;;;76.33;59.33;;;;;-1.94;100.00;102108.78;5066965;28;49739;-65
2022/12/17 19:52:47;;;;;;;;;62.00;52.00;;;;;-1.86;100.00;102120.69;5068692;28;49787;-63
2022/12/17 19:55:13;;;;;;;;;70.00;56.33;;;;;-1.09;100.00;102298.59;5055323;27;50054;-65
2022/12/17 19:57:38;;;;;;;;;66.67;53.33;;;;;-1.20;100.00;102274.44;5054662;28;49810;-64
2022/12/17 20:00:04;;;;;;;;;72.00;54.33;;;;;-0.84;100.00;102303.44;5058396;27;49951;-66
2022/12/17 20:02:29;;;;;;;;;73.67;60.00;;;;;-0.86;100.00;102305.88;5062595;27;49897;-67
2022/12/17 20:04:54;;;;;;;;;70.00;55.00;;;;;-2.18;100.00;102088.53;5068582;27;51372;-72
2022/12/17 20:07:20;;;;;;;;;71.00;54.33;;;;;-0.85;100.00;102323.16;5057116;27;49893;-66
2022/12/17 20:09:45;;;;;;;;;63.00;46.33;;;;;-0.48;100.00;102388.38;5055641;28;49763;-73
2022/12/17 20:12:11;;;;;;;;;57.67;51.67;;;;;-0.49;100.00;102430.41;5071927;28;49731;-63
2022/12/17 20:14:37;;;;;;;;;70.67;57.00;;;;;-0.70;100.00;102380.38;5051749;28;50256;-71
2022/12/17 20:17:06;;;;;;;;;66.67;56.33;;;;;-1.46;100.00;102223.09;5076253;27;50018;-78
2022/12/17 20:19:33;;;;;;;;;72.33;58.00;;;;;-1.60;100.00;102212.28;5052329;28;49980;-72
2022/12/17 20:22:00;;;;;;;;;69.00;54.67;;;;;-0.56;100.00;102397.13;5064906;27;49891;-76
2022/12/17 20:24:26;;;;;;;;;72.67;58.33;;;;;-0.56;100.00;102402.28;5072240;27;50391;-74
2022/12/17 20:26:52;;;;;;;;;83.33;63.00;;;;;-0.64;100.00;102401.56;5077845;27;50087;-71
2022/12/17 20:29:18;;;;;;;;;69.00;54.00;;;;;-0.65;100.00;102412.66;5073997;27;49562;-65
